Bookmark and Share
Track history (hours):
 

Sakura

Last reported at 2014-Apr-23 06:33 UTC. Time now 2014-Apr-23 06:48 UTC.
Position N 35°27' E 139°39'.

Length 32 m; draft 3.6 m.

Type: Tug. MMSI: 431101178.

NotesDate/timePositionNaut miles runAvg speedWind from/ knotsBaromVisibWave heightAir tempDewpointWater temp
2014-Apr-23 06:33N 35°27' E 139°39'0 0.0
2014-Apr-23 05:33N 35°27' E 139°39'0 0.0
2014-Apr-23 04:33N 35°27' E 139°39'0 0.0
2014-Apr-23 03:33N 35°27' E 139°39'0 0.0
2014-Apr-23 02:33N 35°27' E 139°39'0 0.0
2014-Apr-23 01:33N 35°27' E 139°39'0 0.0
2014-Apr-23 00:33N 35°27' E 139°39'1 0.7
2014-Apr-22 23:33N 35°27' E 139°39'2 2.3
2014-Apr-22 22:33N 35°27' E 139°42'2 2.1
2014-Apr-22 21:34N 35°27' E 139°40'2 0.1
2014-Apr-22 09:33N 35°26' E 139°41'1 0.5
2014-Apr-22 08:33N 35°26' E 139°42'0 0.0
2014-Apr-22 07:33N 35°26' E 139°42'0 0.0
2014-Apr-22 06:33N 35°26' E 139°42'4 3.8
2014-Apr-22 05:33N 35°29' E 139°43'3 2.7
2014-Apr-22 04:33N 35°30' E 139°46'5 5.1
2014-Apr-22 03:33N 35°30' E 139°52'5 5.1
2014-Apr-22 02:33N 35°28' E 139°58'1 0.8
2014-Apr-22 01:33N 35°29' E 139°58'2 2.5
2014-Apr-22 00:33N 35°29' E 139°55'1010.3
2014-Apr-21 23:33N 35°27' E 139°43'2 0.2
2014-Apr-21 08:33N 35°27' E 139°40'0 0.0
2014-Apr-21 07:33N 35°27' E 139°40'0 0.0
2014-Apr-21 06:33N 35°27' E 139°40'0 0.0
2014-Apr-21 05:33N 35°27' E 139°40'0 0.0
2014-Apr-21 04:34N 35°27' E 139°40'0 0.0
2014-Apr-21 03:33N 35°27' E 139°40'0 0.0
2014-Apr-21 02:33N 35°27' E 139°40'3 2.9
2014-Apr-21 01:33N 35°24' E 139°39'0 0.4
2014-Apr-21 00:33N 35°24' E 139°39'3 3.2
2014-Apr-20 23:33N 35°27' E 139°40'0 0.0
2014-Apr-20 22:33N 35°27' E 139°40'0 0.0
2014-Apr-20 21:33N 35°27' E 139°40'0 0.0
2014-Apr-20 20:33N 35°27' E 139°40'1 0.1
2014-Apr-20 09:33N 35°28' E 139°39'3 2.6
2014-Apr-20 08:33N 35°26' E 139°42'3 3.2
2014-Apr-20 07:33N 35°29' E 139°45'2 1.9
2014-Apr-20 06:33N 35°29' E 139°47'0 0.0
2014-Apr-20 05:33N 35°29' E 139°47'1 1.3
2014-Apr-20 04:33N 35°30' E 139°46'4 3.8
2014-Apr-20 03:33N 35°28' E 139°42'4 4.2
2014-Apr-20 02:33N 35°31' E 139°46'3 3.3
2014-Apr-20 01:33N 35°28' E 139°47'2 2.0
2014-Apr-20 00:33N 35°27' E 139°45'5 4.6
2014-Apr-19 23:33N 35°31' E 139°46'4 4.2
2014-Apr-19 22:33N 35°29' E 139°42'2 2.1
2014-Apr-19 21:33N 35°27' E 139°40'1 1.1
2014-Apr-19 20:33N 35°27' E 139°39'0 0.0
2014-Apr-18 07:11N 35°27' E 139°39'0 0.0
2014-Apr-18 06:34N 35°27' E 139°39'0 0.0
2014-Apr-18 05:34N 35°27' E 139°39'0 0.0
2014-Apr-18 04:34N 35°27' E 139°39'0 0.0
2014-Apr-18 03:34N 35°27' E 139°39'0 0.0
2014-Apr-18 02:34N 35°27' E 139°39'3 2.8
2014-Apr-18 01:34N 35°27' E 139°42'3 2.8
2014-Apr-18 00:34N 35°29' E 139°45'5 5.1
2014-Apr-17 23:34N 35°27' E 139°39'0 0.0
2014-Apr-16 23:12N 35°27' E 139°39'5 7.9
2014-Apr-16 22:34N 35°30' E 139°44'2 1.7
2014-Apr-16 21:33N 35°29' E 139°42'2 2.3
2014-Apr-16 20:33N 35°27' E 139°42'0 0.0
2014-Apr-16 19:33N 35°27' E 139°42'0 0.0
2014-Apr-16 18:33N 35°27' E 139°42'0 0.0
2014-Apr-16 17:32N 35°27' E 139°42'0 0.0
2014-Apr-16 16:34N 35°27' E 139°42'2 1.7
2014-Apr-16 15:33N 35°27' E 139°40'0 0.2
2014-Apr-16 14:33N 35°27' E 139°41'0 0.1
2014-Apr-16 13:33N 35°27' E 139°41'0 0.3
2014-Apr-16 12:34N 35°26' E 139°41'3 2.5
2014-Apr-16 11:33N 35°27' E 139°44'1 1.4
2014-Apr-16 10:33N 35°27' E 139°42'1 0.9
2014-Apr-16 09:33N 35°28' E 139°41'1 1.2
2014-Apr-16 08:33N 35°28' E 139°40'1 1.0
2014-Apr-16 07:33N 35°27' E 139°40'2 1.5
2014-Apr-16 06:33N 35°27' E 139°39'0 0.0
2014-Apr-16 05:33N 35°27' E 139°39'0 0.0
2014-Apr-16 04:33N 35°27' E 139°39'0 0.0
2014-Apr-16 03:33N 35°27' E 139°39'0 0.0
2014-Apr-16 02:33N 35°27' E 139°39'0 0.0
2014-Apr-16 01:33N 35°27' E 139°39'0 0.0
2014-Apr-16 00:33N 35°27' E 139°39'0 0.0
2014-Apr-15 23:33N 35°27' E 139°39'0 0.0
2014-Apr-15 22:33N 35°27' E 139°39'0 0.0
2014-Apr-15 21:33N 35°27' E 139°39'0 0.0
2014-Apr-15 20:33N 35°27' E 139°39'0 0.0
2014-Apr-15 05:34N 35°27' E 139°39'0 0.0
2014-Apr-15 03:34N 35°27' E 139°39'5 4.8
2014-Apr-15 02:34N 35°28' E 139°44'1 0.5
2014-Apr-15 01:34N 35°29' E 139°45'2 2.2
2014-Apr-15 00:34N 35°26' E 139°44'5 5.1
2014-Apr-14 23:34N 35°25' E 139°39'0 0.4
2014-Apr-14 22:34N 35°24' E 139°39'4 3.9
2014-Apr-14 21:34N 35°25' E 139°44'3 3.5
2014-Apr-14 20:34N 35°27' E 139°40'4 0.3
2014-Apr-14 07:33N 35°30' E 139°43'3 2.9
2014-Apr-14 06:34N 35°27' E 139°46'2 1.5
2014-Apr-14 05:33N 35°28' E 139°44'4 0.5
2014-Apr-13 22:34N 35°27' E 139°39'3 2.7
2014-Apr-13 21:33N 35°26' E 139°42'2 2.4
2014-Apr-13 20:33N 35°27' E 139°40'  

Dump ship's entire track history

sailing weather and tide predictions

Sakura — JG5711 — position and weather